sensor_id;sensor_type;location;lat;lon;timestamp;temperature;humidity
57652;DHT22;43480;53.116;6.734;2024-03-08T00:00:43;2.00;99.90
57652;DHT22;43480;53.116;6.734;2024-03-08T00:03:09;1.90;99.90
57652;DHT22;43480;53.116;6.734;2024-03-08T00:05:36;1.90;99.90
57652;DHT22;43480;53.116;6.734;2024-03-08T00:08:05;1.90;99.90
57652;DHT22;43480;53.116;6.734;2024-03-08T00:10:31;1.90;99.90
57652;DHT22;43480;53.116;6.734;2024-03-08T00:12:57;1.90;99.90
57652;DHT22;43480;53.116;6.734;2024-03-08T00:15:23;1.90;99.90
57652;DHT22;43480;53.116;6.734;2024-03-08T00:17:49;1.90;99.90
57652;DHT22;43480;53.116;6.734;2024-03-08T00:20:16;1.90;99.90
57652;DHT22;43480;53.116;6.734;2024-03-08T00:22:43;1.90;99.90
57652;DHT22;43480;53.116;6.734;2024-03-08T00:25:09;1.90;99.90
57652;DHT22;43480;53.116;6.734;2024-03-08T00:27:36;1.90;99.90
57652;DHT22;43480;53.116;6.734;2024-03-08T00:30:04;1.90;99.90
57652;DHT22;43480;53.116;6.734;2024-03-08T00:32:30;1.90;99.90
57652;DHT22;43480;53.116;6.734;2024-03-08T00:34:57;1.90;99.90
57652;DHT22;43480;53.116;6.734;2024-03-08T00:37:23;1.90;99.90
57652;DHT22;43480;53.116;6.734;2024-03-08T00:39:51;1.90;99.90
57652;DHT22;43480;53.116;6.734;2024-03-08T00:42:18;1.90;99.90
57652;DHT22;43480;53.116;6.734;2024-03-08T00:44:44;1.90;99.90
57652;DHT22;43480;53.116;6.734;2024-03-08T00:47:10;1.90;99.90
57652;DHT22;43480;53.116;6.734;2024-03-08T00:49:36;1.90;99.90
57652;DHT22;43480;53.116;6.734;2024-03-08T00:52:04;1.90;99.90
57652;DHT22;43480;53.116;6.734;2024-03-08T00:54:36;1.80;99.90
57652;DHT22;43480;53.116;6.734;2024-03-08T00:57:03;1.90;99.90
57652;DHT22;43480;53.116;6.734;2024-03-08T00:59:29;1.80;99.90
57652;DHT22;43480;53.116;6.734;2024-03-08T01:01:58;1.90;99.90
57652;DHT22;43480;53.116;6.734;2024-03-08T01:04:26;1.80;99.90
57652;DHT22;43480;53.116;6.734;2024-03-08T01:06:57;1.80;99.90
57652;DHT22;43480;53.116;6.734;2024-03-08T01:09:27;1.90;99.90
57652;DHT22;43480;53.116;6.734;2024-03-08T01:11:56;1.80;99.90
57652;DHT22;43480;53.116;6.734;2024-03-08T01:14:23;1.80;99.90
57652;DHT22;43480;53.116;6.734;2024-03-08T01:16:49;1.80;99.90
57652;DHT22;43480;53.116;6.734;2024-03-08T01:19:16;1.80;99.90
57652;DHT22;43480;53.116;6.734;2024-03-08T01:21:42;1.80;99.90
57652;DHT22;43480;53.116;6.734;2024-03-08T01:24:07;1.80;99.90
57652;DHT22;43480;53.116;6.734;2024-03-08T01:26:33;1.80;99.90
57652;DHT22;43480;53.116;6.734;2024-03-08T01:29:02;1.80;99.90
57652;DHT22;43480;53.116;6.734;2024-03-08T01:31:32;1.70;99.90
57652;DHT22;43480;53.116;6.734;2024-03-08T01:33:58;1.70;99.90
57652;DHT22;43480;53.116;6.734;2024-03-08T01:36:24;1.70;99.90
57652;DHT22;43480;53.116;6.734;2024-03-08T01:38:51;1.70;99.90
57652;DHT22;43480;53.116;6.734;2024-03-08T01:41:17;1.70;99.90
57652;DHT22;43480;53.116;6.734;2024-03-08T01:43:43;1.70;99.90
57652;DHT22;43480;53.116;6.734;2024-03-08T01:46:11;1.60;99.90
57652;DHT22;43480;53.116;6.734;2024-03-08T01:48:38;1.60;99.90
57652;DHT22;43480;53.116;6.734;2024-03-08T01:51:06;1.60;99.90
57652;DHT22;43480;53.116;6.734;2024-03-08T01:53:33;1.60;99.90
57652;DHT22;43480;53.116;6.734;2024-03-08T01:56:00;1.60;99.90
57652;DHT22;43480;53.116;6.734;2024-03-08T01:58:29;1.60;99.90
57652;DHT22;43480;53.116;6.734;2024-03-08T02:00:56;1.60;99.90
57652;DHT22;43480;53.116;6.734;2024-03-08T02:03:22;1.60;99.90
57652;DHT22;43480;53.116;6.734;2024-03-08T02:05:49;1.50;99.90
57652;DHT22;43480;53.116;6.734;2024-03-08T02:08:15;1.50;99.90
57652;DHT22;43480;53.116;6.734;2024-03-08T02:10:42;1.40;99.90
57652;DHT22;43480;53.116;6.734;2024-03-08T02:13:09;1.40;99.90
57652;DHT22;43480;53.116;6.734;2024-03-08T02:15:54;1.40;99.90
57652;DHT22;43480;53.116;6.734;2024-03-08T02:18:21;1.40;99.90
57652;DHT22;43480;53.116;6.734;2024-03-08T02:20:51;1.40;99.90
57652;DHT22;43480;53.116;6.734;2024-03-08T02:23:18;1.40;99.90
57652;DHT22;43480;53.116;6.734;2024-03-08T02:25:44;1.40;99.90
57652;DHT22;43480;53.116;6.734;2024-03-08T02:28:11;1.40;99.90
57652;DHT22;43480;53.116;6.734;2024-03-08T02:30:37;1.40;99.90
57652;DHT22;43480;53.116;6.734;2024-03-08T02:33:07;1.40;99.90
57652;DHT22;43480;53.116;6.734;2024-03-08T02:35:35;1.40;99.90
57652;DHT22;43480;53.116;6.734;2024-03-08T02:38:02;1.40;99.90
57652;DHT22;43480;53.116;6.734;2024-03-08T02:40:29;1.40;99.90
57652;DHT22;43480;53.116;6.734;2024-03-08T02:42:55;1.40;99.90
57652;DHT22;43480;53.116;6.734;2024-03-08T02:45:21;1.50;99.90
57652;DHT22;43480;53.116;6.734;2024-03-08T02:47:47;1.40;99.90
57652;DHT22;43480;53.116;6.734;2024-03-08T02:50:15;1.50;99.90
57652;DHT22;43480;53.116;6.734;2024-03-08T02:52:42;1.40;99.90
57652;DHT22;43480;53.116;6.734;2024-03-08T02:55:09;1.40;99.90
57652;DHT22;43480;53.116;6.734;2024-03-08T02:57:36;1.40;99.90
57652;DHT22;43480;53.116;6.734;2024-03-08T03:00:02;1.40;99.90
57652;DHT22;43480;53.116;6.734;2024-03-08T03:02:29;1.30;99.90
57652;DHT22;43480;53.116;6.734;2024-03-08T03:04:55;1.30;99.90
57652;DHT22;43480;53.116;6.734;2024-03-08T03:07:21;1.30;99.90
57652;DHT22;43480;53.116;6.734;2024-03-08T03:09:47;1.30;99.90
57652;DHT22;43480;53.116;6.734;2024-03-08T03:12:13;1.30;99.90
57652;DHT22;43480;53.116;6.734;2024-03-08T03:14:39;1.30;99.90
57652;DHT22;43480;53.116;6.734;2024-03-08T03:17:05;1.20;99.90
57652;DHT22;43480;53.116;6.734;2024-03-08T03:19:31;1.20;99.90
57652;DHT22;43480;53.116;6.734;2024-03-08T03:21:57;1.20;99.90
57652;DHT22;43480;53.116;6.734;2024-03-08T03:24:23;1.20;99.90
57652;DHT22;43480;53.116;6.734;2024-03-08T03:26:49;1.20;99.90
57652;DHT22;43480;53.116;6.734;2024-03-08T03:29:15;1.10;99.90
57652;DHT22;43480;53.116;6.734;2024-03-08T03:31:42;1.20;99.90
57652;DHT22;43480;53.116;6.734;2024-03-08T03:34:12;1.20;99.90
57652;DHT22;43480;53.116;6.734;2024-03-08T03:36:38;1.10;99.90
57652;DHT22;43480;53.116;6.734;2024-03-08T03:39:11;1.10;99.90
57652;DHT22;43480;53.116;6.734;2024-03-08T03:41:38;1.10;99.90
57652;DHT22;43480;53.116;6.734;2024-03-08T03:44:05;1.10;99.90
57652;DHT22;43480;53.116;6.734;2024-03-08T03:46:34;1.10;99.90
57652;DHT22;43480;53.116;6.734;2024-03-08T03:49:00;1.10;99.90
57652;DHT22;43480;53.116;6.734;2024-03-08T03:51:25;1.10;99.90
57652;DHT22;43480;53.116;6.734;2024-03-08T03:53:51;1.10;99.90
57652;DHT22;43480;53.116;6.734;2024-03-08T03:56:18;1.10;99.90
57652;DHT22;43480;53.116;6.734;2024-03-08T03:58:44;1.00;99.90
57652;DHT22;43480;53.116;6.734;2024-03-08T04:01:10;1.00;99.90
57652;DHT22;43480;53.116;6.734;2024-03-08T04:03:36;1.00;99.90
57652;DHT22;43480;53.116;6.734;2024-03-08T04:06:04;1.00;99.90
57652;DHT22;43480;53.116;6.734;2024-03-08T04:08:30;1.00;99.90
57652;DHT22;43480;53.116;6.734;2024-03-08T04:10:56;1.00;99.90
57652;DHT22;43480;53.116;6.734;2024-03-08T04:13:23;1.00;99.90
57652;DHT22;43480;53.116;6.734;2024-03-08T04:15:49;1.00;99.90
57652;DHT22;43480;53.116;6.734;2024-03-08T04:18:15;1.00;99.90
57652;DHT22;43480;53.116;6.734;2024-03-08T04:20:41;1.00;99.90
57652;DHT22;43480;53.116;6.734;2024-03-08T04:23:07;0.90;99.90
57652;DHT22;43480;53.116;6.734;2024-03-08T04:25:32;0.90;99.90
57652;DHT22;43480;53.116;6.734;2024-03-08T04:27:58;0.90;99.90
57652;DHT22;43480;53.116;6.734;2024-03-08T04:30:24;0.90;99.90
57652;DHT22;43480;53.116;6.734;2024-03-08T04:32:50;0.90;99.90
57652;DHT22;43480;53.116;6.734;2024-03-08T04:35:16;0.90;99.90
57652;DHT22;43480;53.116;6.734;2024-03-08T04:37:42;1.00;99.90
57652;DHT22;43480;53.116;6.734;2024-03-08T04:40:08;0.90;99.90
57652;DHT22;43480;53.116;6.734;2024-03-08T04:42:34;0.90;99.90
57652;DHT22;43480;53.116;6.734;2024-03-08T04:45:01;0.90;99.90
57652;DHT22;43480;53.116;6.734;2024-03-08T04:47:27;0.90;99.90
57652;DHT22;43480;53.116;6.734;2024-03-08T04:49:52;0.90;99.90
57652;DHT22;43480;53.116;6.734;2024-03-08T04:52:18;0.90;99.90
57652;DHT22;43480;53.116;6.734;2024-03-08T04:54:44;0.90;99.90
57652;DHT22;43480;53.116;6.734;2024-03-08T04:57:10;0.90;99.90
57652;DHT22;43480;53.116;6.734;2024-03-08T04:59:36;0.80;99.90
57652;DHT22;43480;53.116;6.734;2024-03-08T05:02:03;0.80;99.90
57652;DHT22;43480;53.116;6.734;2024-03-08T05:04:29;0.80;99.90
57652;DHT22;43480;53.116;6.734;2024-03-08T05:06:55;0.80;99.90
57652;DHT22;43480;53.116;6.734;2024-03-08T05:09:21;0.80;99.90
57652;DHT22;43480;53.116;6.734;2024-03-08T05:11:47;0.80;99.90
57652;DHT22;43480;53.116;6.734;2024-03-08T05:14:14;0.80;99.90
57652;DHT22;43480;53.116;6.734;2024-03-08T05:16:43;0.80;99.90
57652;DHT22;43480;53.116;6.734;2024-03-08T05:19:17;0.80;99.90
57652;DHT22;43480;53.116;6.734;2024-03-08T05:21:44;0.70;99.90
57652;DHT22;43480;53.116;6.734;2024-03-08T05:24:09;0.70;99.90
57652;DHT22;43480;53.116;6.734;2024-03-08T05:26:36;0.80;99.90
57652;DHT22;43480;53.116;6.734;2024-03-08T05:29:03;0.80;99.90
57652;DHT22;43480;53.116;6.734;2024-03-08T05:31:30;0.80;99.90
57652;DHT22;43480;53.116;6.734;2024-03-08T05:33:56;0.70;99.90
57652;DHT22;43480;53.116;6.734;2024-03-08T05:36:22;0.80;99.90
57652;DHT22;43480;53.116;6.734;2024-03-08T05:38:48;0.80;99.90
57652;DHT22;43480;53.116;6.734;2024-03-08T05:41:16;0.70;99.90
57652;DHT22;43480;53.116;6.734;2024-03-08T05:43:43;0.70;99.90
57652;DHT22;43480;53.116;6.734;2024-03-08T05:46:09;0.60;99.90
57652;DHT22;43480;53.116;6.734;2024-03-08T05:48:37;0.60;99.90
57652;DHT22;43480;53.116;6.734;2024-03-08T05:51:03;0.60;99.90
57652;DHT22;43480;53.116;6.734;2024-03-08T05:53:29;0.60;99.90
57652;DHT22;43480;53.116;6.734;2024-03-08T05:55:58;0.60;99.90
57652;DHT22;43480;53.116;6.734;2024-03-08T05:58:24;0.60;99.90
57652;DHT22;43480;53.116;6.734;2024-03-08T06:00:50;0.60;99.90
57652;DHT22;43480;53.116;6.734;2024-03-08T06:03:16;0.60;99.90
57652;DHT22;43480;53.116;6.734;2024-03-08T06:05:42;0.50;99.90
57652;DHT22;43480;53.116;6.734;2024-03-08T06:08:07;0.60;99.90
57652;DHT22;43480;53.116;6.734;2024-03-08T06:10:34;0.60;99.90
57652;DHT22;43480;53.116;6.734;2024-03-08T06:12:59;0.50;99.90
57652;DHT22;43480;53.116;6.734;2024-03-08T06:15:27;0.50;99.90
57652;DHT22;43480;53.116;6.734;2024-03-08T06:17:52;0.60;99.90
57652;DHT22;43480;53.116;6.734;2024-03-08T06:20:18;0.60;99.90
57652;DHT22;43480;53.116;6.734;2024-03-08T06:22:44;0.50;99.90
57652;DHT22;43480;53.116;6.734;2024-03-08T06:25:13;0.60;99.90
57652;DHT22;43480;53.116;6.734;2024-03-08T06:27:41;0.60;99.90
57652;DHT22;43480;53.116;6.734;2024-03-08T06:30:08;0.60;99.90
57652;DHT22;43480;53.116;6.734;2024-03-08T06:32:38;0.70;99.90
57652;DHT22;43480;53.116;6.734;2024-03-08T06:35:05;0.70;99.90
57652;DHT22;43480;53.116;6.734;2024-03-08T06:37:32;0.70;99.90
57652;DHT22;43480;53.116;6.734;2024-03-08T06:39:58;0.70;99.90
57652;DHT22;43480;53.116;6.734;2024-03-08T06:42:24;0.70;99.90
57652;DHT22;43480;53.116;6.734;2024-03-08T06:44:50;0.70;99.90
57652;DHT22;43480;53.116;6.734;2024-03-08T06:47:16;0.70;99.90
57652;DHT22;43480;53.116;6.734;2024-03-08T06:49:45;0.70;99.90
57652;DHT22;43480;53.116;6.734;2024-03-08T06:52:11;0.80;99.90
57652;DHT22;43480;53.116;6.734;2024-03-08T06:54:37;0.80;99.90
57652;DHT22;43480;53.116;6.734;2024-03-08T06:57:05;0.90;99.90
57652;DHT22;43480;53.116;6.734;2024-03-08T06:59:32;0.90;99.90
57652;DHT22;43480;53.116;6.734;2024-03-08T07:01:58;0.90;99.90
57652;DHT22;43480;53.116;6.734;2024-03-08T07:04:25;0.90;99.90
57652;DHT22;43480;53.116;6.734;2024-03-08T07:06:55;0.90;99.90
57652;DHT22;43480;53.116;6.734;2024-03-08T07:09:22;0.90;99.90
57652;DHT22;43480;53.116;6.734;2024-03-08T07:11:47;1.00;99.90
57652;DHT22;43480;53.116;6.734;2024-03-08T07:14:18;1.00;99.90
57652;DHT22;43480;53.116;6.734;2024-03-08T07:16:44;1.00;99.90
57652;DHT22;43480;53.116;6.734;2024-03-08T07:19:10;1.10;99.90
57652;DHT22;43480;53.116;6.734;2024-03-08T07:21:36;1.10;99.90
57652;DHT22;43480;53.116;6.734;2024-03-08T07:24:01;1.10;99.90
57652;DHT22;43480;53.116;6.734;2024-03-08T07:26:27;1.20;99.90
57652;DHT22;43480;53.116;6.734;2024-03-08T07:28:53;1.20;99.90
57652;DHT22;43480;53.116;6.734;2024-03-08T07:31:22;1.30;99.90
57652;DHT22;43480;53.116;6.734;2024-03-08T07:33:51;1.30;99.90
57652;DHT22;43480;53.116;6.734;2024-03-08T07:36:19;1.40;99.90
57652;DHT22;43480;53.116;6.734;2024-03-08T07:38:45;1.40;99.90
57652;DHT22;43480;53.116;6.734;2024-03-08T07:41:15;1.40;99.90
57652;DHT22;43480;53.116;6.734;2024-03-08T07:43:42;1.50;99.90
57652;DHT22;43480;53.116;6.734;2024-03-08T07:46:09;1.50;99.90
57652;DHT22;43480;53.116;6.734;2024-03-08T07:48:36;1.60;99.90
57652;DHT22;43480;53.116;6.734;2024-03-08T07:51:05;1.60;99.90
57652;DHT22;43480;53.116;6.734;2024-03-08T07:53:31;1.70;99.90
57652;DHT22;43480;53.116;6.734;2024-03-08T07:55:57;1.70;99.90
57652;DHT22;43480;53.116;6.734;2024-03-08T07:58:23;1.80;99.90
57652;DHT22;43480;53.116;6.734;2024-03-08T08:00:49;1.80;99.90
57652;DHT22;43480;53.116;6.734;2024-03-08T08:03:15;1.90;99.90
57652;DHT22;43480;53.116;6.734;2024-03-08T08:05:41;1.90;99.90
57652;DHT22;43480;53.116;6.734;2024-03-08T08:08:08;2.00;99.90
57652;DHT22;43480;53.116;6.734;2024-03-08T08:10:36;2.00;99.90
57652;DHT22;43480;53.116;6.734;2024-03-08T08:13:02;2.10;99.90
57652;DHT22;43480;53.116;6.734;2024-03-08T08:15:30;2.20;99.90
57652;DHT22;43480;53.116;6.734;2024-03-08T08:17:56;2.30;99.90
57652;DHT22;43480;53.116;6.734;2024-03-08T08:20:21;2.30;99.90
57652;DHT22;43480;53.116;6.734;2024-03-08T08:22:48;2.40;99.90
57652;DHT22;43480;53.116;6.734;2024-03-08T08:25:14;2.40;99.90
57652;DHT22;43480;53.116;6.734;2024-03-08T08:27:41;2.50;99.90
57652;DHT22;43480;53.116;6.734;2024-03-08T08:30:10;2.50;99.90
57652;DHT22;43480;53.116;6.734;2024-03-08T08:32:37;2.60;99.90
57652;DHT22;43480;53.116;6.734;2024-03-08T08:35:05;2.70;99.90
57652;DHT22;43480;53.116;6.734;2024-03-08T08:37:32;2.70;99.90
57652;DHT22;43480;53.116;6.734;2024-03-08T08:39:58;2.70;99.90
57652;DHT22;43480;53.116;6.734;2024-03-08T08:42:24;2.80;99.90
57652;DHT22;43480;53.116;6.734;2024-03-08T08:44:51;2.90;99.90
57652;DHT22;43480;53.116;6.734;2024-03-08T08:47:17;2.90;99.90
57652;DHT22;43480;53.116;6.734;2024-03-08T08:49:44;3.00;99.90
57652;DHT22;43480;53.116;6.734;2024-03-08T08:52:12;3.00;99.90
57652;DHT22;43480;53.116;6.734;2024-03-08T08:54:38;3.10;99.90
57652;DHT22;43480;53.116;6.734;2024-03-08T08:57:04;3.20;99.90
57652;DHT22;43480;53.116;6.734;2024-03-08T08:59:36;3.20;99.90
57652;DHT22;43480;53.116;6.734;2024-03-08T09:02:02;3.30;99.90
57652;DHT22;43480;53.116;6.734;2024-03-08T09:04:29;3.30;99.90
57652;DHT22;43480;53.116;6.734;2024-03-08T09:06:56;3.40;99.90
57652;DHT22;43480;53.116;6.734;2024-03-08T09:09:23;3.50;99.90
57652;DHT22;43480;53.116;6.734;2024-03-08T09:11:48;3.60;99.90
57652;DHT22;43480;53.116;6.734;2024-03-08T09:14:15;3.60;99.90
57652;DHT22;43480;53.116;6.734;2024-03-08T09:16:41;3.70;99.90
57652;DHT22;43480;53.116;6.734;2024-03-08T09:19:07;3.80;99.90
57652;DHT22;43480;53.116;6.734;2024-03-08T09:21:33;3.90;99.90
57652;DHT22;43480;53.116;6.734;2024-03-08T09:24:01;4.00;99.90
57652;DHT22;43480;53.116;6.734;2024-03-08T09:26:26;4.00;99.90
57652;DHT22;43480;53.116;6.734;2024-03-08T09:28:53;4.10;99.90
57652;DHT22;43480;53.116;6.734;2024-03-08T09:31:21;4.20;99.90
57652;DHT22;43480;53.116;6.734;2024-03-08T09:33:47;4.20;99.90
57652;DHT22;43480;53.116;6.734;2024-03-08T09:36:13;4.30;99.90
57652;DHT22;43480;53.116;6.734;2024-03-08T09:38:40;4.30;99.90
57652;DHT22;43480;53.116;6.734;2024-03-08T09:41:06;4.40;99.90
57652;DHT22;43480;53.116;6.734;2024-03-08T09:43:33;4.50;99.90
57652;DHT22;43480;53.116;6.734;2024-03-08T09:45:58;4.50;99.90
57652;DHT22;43480;53.116;6.734;2024-03-08T09:48:26;4.50;99.90
57652;DHT22;43480;53.116;6.734;2024-03-08T09:50:52;4.60;99.90
57652;DHT22;43480;53.116;6.734;2024-03-08T09:53:18;4.60;99.90
57652;DHT22;43480;53.116;6.734;2024-03-08T09:55:44;4.70;99.90
57652;DHT22;43480;53.116;6.734;2024-03-08T09:58:15;4.70;99.90
57652;DHT22;43480;53.116;6.734;2024-03-08T10:00:47;4.80;99.90
57652;DHT22;43480;53.116;6.734;2024-03-08T10:03:13;4.90;99.90
57652;DHT22;43480;53.116;6.734;2024-03-08T10:05:41;4.90;99.90
57652;DHT22;43480;53.116;6.734;2024-03-08T10:08:07;5.00;99.90
57652;DHT22;43480;53.116;6.734;2024-03-08T10:10:37;5.10;99.90
57652;DHT22;43480;53.116;6.734;2024-03-08T10:13:06;5.20;99.90
57652;DHT22;43480;53.116;6.734;2024-03-08T10:15:32;5.20;99.90
57652;DHT22;43480;53.116;6.734;2024-03-08T10:18:01;5.30;99.90
57652;DHT22;43480;53.116;6.734;2024-03-08T10:20:31;5.20;99.90
57652;DHT22;43480;53.116;6.734;2024-03-08T10:23:00;5.30;99.90
57652;DHT22;43480;53.116;6.734;2024-03-08T10:25:26;5.30;99.90
57652;DHT22;43480;53.116;6.734;2024-03-08T10:27:52;5.40;99.90
57652;DHT22;43480;53.116;6.734;2024-03-08T10:30:17;5.40;99.90
57652;DHT22;43480;53.116;6.734;2024-03-08T10:32:45;5.50;99.90
57652;DHT22;43480;53.116;6.734;2024-03-08T10:35:12;5.60;99.90
57652;DHT22;43480;53.116;6.734;2024-03-08T10:37:58;5.70;99.90
57652;DHT22;43480;53.116;6.734;2024-03-08T10:40:26;5.80;99.90
57652;DHT22;43480;53.116;6.734;2024-03-08T10:42:56;6.00;99.90
57652;DHT22;43480;53.116;6.734;2024-03-08T10:45:35;6.10;99.90
57652;DHT22;43480;53.116;6.734;2024-03-08T10:50:33;6.20;99.90
57652;DHT22;43480;53.116;6.734;2024-03-08T10:53:00;6.30;99.90
57652;DHT22;43480;53.116;6.734;2024-03-08T10:55:28;6.40;99.90
57652;DHT22;43480;53.116;6.734;2024-03-08T10:57:54;6.60;99.90
57652;DHT22;43480;53.116;6.734;2024-03-08T11:00:20;6.70;99.90
57652;DHT22;43480;53.116;6.734;2024-03-08T11:02:53;6.80;99.90
57652;DHT22;43480;53.116;6.734;2024-03-08T11:05:51;6.90;99.90
57652;DHT22;43480;53.116;6.734;2024-03-08T11:08:17;7.00;99.90
57652;DHT22;43480;53.116;6.734;2024-03-08T11:10:53;7.20;99.90
57652;DHT22;43480;53.116;6.734;2024-03-08T11:13:41;7.40;99.90
57652;DHT22;43480;53.116;6.734;2024-03-08T11:16:12;7.50;99.90
57652;DHT22;43480;53.116;6.734;2024-03-08T11:18:38;7.60;99.90
57652;DHT22;43480;53.116;6.734;2024-03-08T11:21:06;7.60;99.90
57652;DHT22;43480;53.116;6.734;2024-03-08T11:23:40;7.80;99.90
57652;DHT22;43480;53.116;6.734;2024-03-08T11:26:23;7.90;99.90
57652;DHT22;43480;53.116;6.734;2024-03-08T11:28:49;8.00;99.90
57652;DHT22;43480;53.116;6.734;2024-03-08T11:33:47;8.10;99.90
57652;DHT22;43480;53.116;6.734;2024-03-08T11:36:24;8.30;99.90
57652;DHT22;43480;53.116;6.734;2024-03-08T11:38:51;8.40;99.90
57652;DHT22;43480;53.116;6.734;2024-03-08T11:41:19;8.50;99.90
57652;DHT22;43480;53.116;6.734;2024-03-08T11:43:46;8.70;99.90
57652;DHT22;43480;53.116;6.734;2024-03-08T11:46:13;8.80;99.90
57652;DHT22;43480;53.116;6.734;2024-03-08T11:48:43;8.90;99.90
57652;DHT22;43480;53.116;6.734;2024-03-08T11:51:13;8.90;99.90
57652;DHT22;43480;53.116;6.734;2024-03-08T11:53:40;9.00;99.90
57652;DHT22;43480;53.116;6.734;2024-03-08T11:56:10;9.10;99.90
57652;DHT22;43480;53.116;6.734;2024-03-08T11:58:38;9.30;99.90
57652;DHT22;43480;53.116;6.734;2024-03-08T12:01:10;9.40;99.90
57652;DHT22;43480;53.116;6.734;2024-03-08T12:03:42;9.30;99.90
57652;DHT22;43480;53.116;6.734;2024-03-08T12:06:09;9.40;99.90
57652;DHT22;43480;53.116;6.734;2024-03-08T12:08:35;9.50;99.90
57652;DHT22;43480;53.116;6.734;2024-03-08T12:11:04;9.60;99.90
57652;DHT22;43480;53.116;6.734;2024-03-08T12:13:34;9.80;99.90
57652;DHT22;43480;53.116;6.734;2024-03-08T12:16:03;9.80;99.90
57652;DHT22;43480;53.116;6.734;2024-03-08T12:18:34;10.00;99.90
57652;DHT22;43480;53.116;6.734;2024-03-08T12:21:06;10.10;99.90
57652;DHT22;43480;53.116;6.734;2024-03-08T12:23:37;10.20;99.90
57652;DHT22;43480;53.116;6.734;2024-03-08T12:26:26;10.30;99.90
57652;DHT22;43480;53.116;6.734;2024-03-08T12:28:52;10.40;99.90
57652;DHT22;43480;53.116;6.734;2024-03-08T12:31:18;10.60;99.90
57652;DHT22;43480;53.116;6.734;2024-03-08T12:33:52;10.70;99.90
57652;DHT22;43480;53.116;6.734;2024-03-08T12:36:19;10.80;99.90
57652;DHT22;43480;53.116;6.734;2024-03-08T12:38:48;10.70;99.90
57652;DHT22;43480;53.116;6.734;2024-03-08T12:41:18;10.80;99.90
57652;DHT22;43480;53.116;6.734;2024-03-08T12:43:48;10.90;99.90
57652;DHT22;43480;53.116;6.734;2024-03-08T12:46:22;10.90;99.90
57652;DHT22;43480;53.116;6.734;2024-03-08T12:48:51;11.00;99.90
57652;DHT22;43480;53.116;6.734;2024-03-08T12:51:20;11.00;99.90
57652;DHT22;43480;53.116;6.734;2024-03-08T12:53:46;11.20;99.90
57652;DHT22;43480;53.116;6.734;2024-03-08T12:56:13;11.20;99.90
57652;DHT22;43480;53.116;6.734;2024-03-08T12:58:38;11.20;99.90
57652;DHT22;43480;53.116;6.734;2024-03-08T13:01:04;11.30;99.90
57652;DHT22;43480;53.116;6.734;2024-03-08T13:03:35;11.30;99.90
57652;DHT22;43480;53.116;6.734;2024-03-08T13:06:07;11.20;99.90
57652;DHT22;43480;53.116;6.734;2024-03-08T13:08:37;11.10;99.90
57652;DHT22;43480;53.116;6.734;2024-03-08T13:11:08;11.00;99.90
57652;DHT22;43480;53.116;6.734;2024-03-08T13:13:36;11.00;99.90
57652;DHT22;43480;53.116;6.734;2024-03-08T13:16:06;10.90;99.90
57652;DHT22;43480;53.116;6.734;2024-03-08T13:18:35;10.90;99.90
57652;DHT22;43480;53.116;6.734;2024-03-08T13:21:01;10.90;99.90
57652;DHT22;43480;53.116;6.734;2024-03-08T13:23:37;10.80;99.90
57652;DHT22;43480;53.116;6.734;2024-03-08T13:26:13;10.70;99.90
57652;DHT22;43480;53.116;6.734;2024-03-08T13:28:50;10.60;99.90
57652;DHT22;43480;53.116;6.734;2024-03-08T13:31:20;10.40;99.90
57652;DHT22;43480;53.116;6.734;2024-03-08T13:33:45;10.20;99.90
57652;DHT22;43480;53.116;6.734;2024-03-08T13:36:13;10.10;99.90
57652;DHT22;43480;53.116;6.734;2024-03-08T13:38:45;10.00;99.90
57652;DHT22;43480;53.116;6.734;2024-03-08T13:41:12;10.00;99.90
57652;DHT22;43480;53.116;6.734;2024-03-08T13:43:40;10.00;99.90
57652;DHT22;43480;53.116;6.734;2024-03-08T13:46:06;10.10;99.90
57652;DHT22;43480;53.116;6.734;2024-03-08T13:48:33;10.10;99.90
57652;DHT22;43480;53.116;6.734;2024-03-08T13:50:59;10.20;99.90
57652;DHT22;43480;53.116;6.734;2024-03-08T13:53:26;10.30;99.90
57652;DHT22;43480;53.116;6.734;2024-03-08T13:55:51;10.30;99.90
57652;DHT22;43480;53.116;6.734;2024-03-08T13:58:17;10.30;99.90
57652;DHT22;43480;53.116;6.734;2024-03-08T14:00:43;10.40;99.90
57652;DHT22;43480;53.116;6.734;2024-03-08T14:03:11;10.60;99.90
57652;DHT22;43480;53.116;6.734;2024-03-08T14:05:41;11.00;99.90
57652;DHT22;43480;53.116;6.734;2024-03-08T14:08:10;11.30;99.90
57652;DHT22;43480;53.116;6.734;2024-03-08T14:10:38;11.40;99.90
57652;DHT22;43480;53.116;6.734;2024-03-08T14:13:04;11.60;99.90
57652;DHT22;43480;53.116;6.734;2024-03-08T14:15:33;11.80;99.90
57652;DHT22;43480;53.116;6.734;2024-03-08T14:18:00;11.90;99.90
57652;DHT22;43480;53.116;6.734;2024-03-08T14:20:26;11.80;99.90
57652;DHT22;43480;53.116;6.734;2024-03-08T14:22:55;11.80;99.90
57652;DHT22;43480;53.116;6.734;2024-03-08T14:25:25;11.70;99.90
57652;DHT22;43480;53.116;6.734;2024-03-08T14:27:52;11.70;99.90
57652;DHT22;43480;53.116;6.734;2024-03-08T14:30:24;12.00;99.90
57652;DHT22;43480;53.116;6.734;2024-03-08T14:33:04;12.30;99.90
57652;DHT22;43480;53.116;6.734;2024-03-08T14:35:37;12.40;99.90
57652;DHT22;43480;53.116;6.734;2024-03-08T14:38:03;12.60;99.90
57652;DHT22;43480;53.116;6.734;2024-03-08T14:40:30;12.70;99.90
57652;DHT22;43480;53.116;6.734;2024-03-08T14:42:56;12.80;99.90
57652;DHT22;43480;53.116;6.734;2024-03-08T14:45:22;13.00;99.90
57652;DHT22;43480;53.116;6.734;2024-03-08T14:47:50;13.20;99.90
57652;DHT22;43480;53.116;6.734;2024-03-08T14:50:23;13.40;99.90
57652;DHT22;43480;53.116;6.734;2024-03-08T14:52:49;13.60;99.90
57652;DHT22;43480;53.116;6.734;2024-03-08T14:55:15;13.60;99.90
57652;DHT22;43480;53.116;6.734;2024-03-08T14:57:42;13.30;99.90
57652;DHT22;43480;53.116;6.734;2024-03-08T15:00:11;13.20;99.90
57652;DHT22;43480;53.116;6.734;2024-03-08T15:02:43;13.10;99.90
57652;DHT22;43480;53.116;6.734;2024-03-08T15:05:09;13.10;99.90
57652;DHT22;43480;53.116;6.734;2024-03-08T15:07:37;13.00;99.90
57652;DHT22;43480;53.116;6.734;2024-03-08T15:10:07;13.10;99.90
57652;DHT22;43480;53.116;6.734;2024-03-08T15:12:39;13.20;99.90
57652;DHT22;43480;53.116;6.734;2024-03-08T15:15:08;13.40;99.90
57652;DHT22;43480;53.116;6.734;2024-03-08T15:17:35;13.50;99.90
57652;DHT22;43480;53.116;6.734;2024-03-08T15:20:02;13.50;99.90
57652;DHT22;43480;53.116;6.734;2024-03-08T15:22:29;13.20;99.90
57652;DHT22;43480;53.116;6.734;2024-03-08T15:24:54;12.80;99.90
57652;DHT22;43480;53.116;6.734;2024-03-08T15:27:20;12.40;99.90
57652;DHT22;43480;53.116;6.734;2024-03-08T15:29:46;12.00;99.90
57652;DHT22;43480;53.116;6.734;2024-03-08T15:32:14;11.70;99.90
57652;DHT22;43480;53.116;6.734;2024-03-08T15:34:45;11.60;99.90
57652;DHT22;43480;53.116;6.734;2024-03-08T15:37:11;11.30;99.90
57652;DHT22;43480;53.116;6.734;2024-03-08T15:39:43;11.20;99.90
57652;DHT22;43480;53.116;6.734;2024-03-08T15:42:09;11.10;99.90
57652;DHT22;43480;53.116;6.734;2024-03-08T15:44:37;11.00;99.90
57652;DHT22;43480;53.116;6.734;2024-03-08T15:47:04;10.90;99.90
57652;DHT22;43480;53.116;6.734;2024-03-08T15:49:32;10.90;99.90